createdAt,value
2018-06-17T00:00:08.350Z,99.99
2018-06-17T00:01:08.908Z,99.99
2018-06-17T00:02:09.471Z,99.99
2018-06-17T00:03:10.031Z,99.99
2018-06-17T00:04:10.571Z,99.99
2018-06-17T00:05:11.114Z,99.99
2018-06-17T00:06:11.666Z,99.99
2018-06-17T00:07:12.217Z,99.99
2018-06-17T00:08:12.769Z,99.99
2018-06-17T00:09:13.316Z,99.99
2018-06-17T00:10:13.860Z,99.99
2018-06-17T00:11:14.409Z,99.99
2018-06-17T00:12:14.954Z,99.99
2018-06-17T00:13:15.500Z,99.99
2018-06-17T00:14:16.049Z,99.99
2018-06-17T00:15:16.602Z,99.99
2018-06-17T00:16:17.150Z,99.99
2018-06-17T00:17:17.702Z,99.99
2018-06-17T00:18:18.246Z,99.99
2018-06-17T00:19:18.799Z,99.99
2018-06-17T00:20:19.342Z,99.99
2018-06-17T00:21:19.895Z,99.99
2018-06-17T00:22:20.443Z,99.99
2018-06-17T00:23:20.993Z,99.99
2018-06-17T00:24:21.541Z,99.99
2018-06-17T00:25:22.089Z,99.99
2018-06-17T00:26:22.641Z,99.99
2018-06-17T00:27:23.194Z,99.99
2018-06-17T00:28:23.739Z,99.99
2018-06-17T00:29:24.284Z,99.99
2018-06-17T00:30:24.833Z,99.99
2018-06-17T00:31:25.383Z,99.99
2018-06-17T00:32:25.930Z,99.99
2018-06-17T00:33:26.485Z,99.99
2018-06-17T00:34:27.034Z,99.99
2018-06-17T00:35:27.580Z,99.99
2018-06-17T00:36:28.127Z,99.99
2018-06-17T00:37:28.685Z,99.99
2018-06-17T00:38:29.228Z,99.99
2018-06-17T00:39:29.770Z,99.99
2018-06-17T00:40:30.350Z,99.99
2018-06-17T00:41:30.916Z,99.99
2018-06-17T00:42:31.468Z,99.99
2018-06-17T00:43:32.056Z,99.99
2018-06-17T00:44:32.583Z,99.99
2018-06-17T00:45:33.128Z,99.99
2018-06-17T00:46:33.678Z,99.99
2018-06-17T00:47:34.229Z,99.99
2018-06-17T00:48:34.779Z,99.99
2018-06-17T00:49:35.328Z,99.99
2018-06-17T00:50:35.872Z,99.99
2018-06-17T00:51:36.442Z,99.99
2018-06-17T00:52:36.973Z,99.99
2018-06-17T00:53:37.523Z,99.99
2018-06-17T00:54:38.067Z,99.99
2018-06-17T00:55:38.609Z,99.99
2018-06-17T00:56:39.162Z,99.99
2018-06-17T00:57:39.714Z,99.99
2018-06-17T00:58:40.261Z,99.99
2018-06-17T00:59:40.813Z,99.99
2018-06-17T01:00:41.360Z,99.99
2018-06-17T01:01:41.914Z,99.99
2018-06-17T01:02:42.456Z,99.99
2018-06-17T01:03:43.008Z,99.99
2018-06-17T01:04:43.557Z,99.99
2018-06-17T01:05:44.107Z,99.99
2018-06-17T01:06:44.660Z,99.99
2018-06-17T01:07:45.209Z,99.99
2018-06-17T01:08:45.757Z,99.99
2018-06-17T01:09:46.299Z,99.99
2018-06-17T01:10:46.848Z,99.99
2018-06-17T01:11:47.390Z,99.99
2018-06-17T01:12:47.934Z,99.99
2018-06-17T01:13:48.481Z,99.99
2018-06-17T01:14:49.032Z,99.99
2018-06-17T01:15:49.574Z,99.99
2018-06-17T01:16:50.126Z,99.99
2018-06-17T01:17:50.677Z,99.99
2018-06-17T01:18:51.257Z,99.99
2018-06-17T01:19:51.771Z,99.99
2018-06-17T01:20:52.323Z,99.99
2018-06-17T01:21:52.865Z,99.99
2018-06-17T01:22:53.415Z,99.99
2018-06-17T01:23:53.969Z,99.99
2018-06-17T01:24:54.518Z,99.99
2018-06-17T01:25:55.071Z,99.99
2018-06-17T01:26:55.609Z,99.99
2018-06-17T01:27:56.158Z,99.99
2018-06-17T01:28:56.706Z,99.99
2018-06-17T01:29:57.306Z,99.99
2018-06-17T01:30:57.803Z,99.99
2018-06-17T01:31:58.357Z,99.99
2018-06-17T01:32:58.904Z,99.99
2018-06-17T01:33:59.458Z,99.99
2018-06-17T01:35:00.021Z,99.99
2018-06-17T01:36:00.559Z,99.99
2018-06-17T01:37:01.106Z,99.99
2018-06-17T01:38:01.653Z,99.99
2018-06-17T01:39:02.204Z,99.99
2018-06-17T01:40:02.746Z,99.99
2018-06-17T01:41:03.293Z,99.99
2018-06-17T01:42:03.846Z,99.99
2018-06-17T01:43:04.394Z,99.99
2018-06-17T01:44:04.950Z,99.99
2018-06-17T01:45:05.498Z,99.99
2018-06-17T01:46:06.050Z,99.99
2018-06-17T01:47:06.596Z,99.99
2018-06-17T01:48:07.148Z,99.99
2018-06-17T01:49:07.694Z,99.99
2018-06-17T01:50:08.245Z,99.99
2018-06-17T01:51:08.792Z,99.99
2018-06-17T01:52:09.341Z,99.99
2018-06-17T01:53:09.887Z,99.99
2018-06-17T01:54:10.436Z,99.99
2018-06-17T01:55:10.991Z,99.99
2018-06-17T01:56:11.541Z,99.99
2018-06-17T01:57:12.090Z,99.99
2018-06-17T01:58:12.638Z,99.99
2018-06-17T01:59:13.187Z,99.99
2018-06-17T02:00:13.733Z,99.99
2018-06-17T02:01:14.274Z,99.99
2018-06-17T02:02:14.825Z,99.99
2018-06-17T02:03:15.373Z,99.99
2018-06-17T02:04:15.940Z,99.99
2018-06-17T02:05:16.481Z,99.99
2018-06-17T02:06:17.023Z,99.99
2018-06-17T02:07:17.573Z,99.99
2018-06-17T02:08:18.125Z,99.99
2018-06-17T02:09:18.672Z,99.99
2018-06-17T02:10:19.216Z,99.99
2018-06-17T02:11:19.771Z,99.99
2018-06-17T02:12:20.318Z,99.99
2018-06-17T02:13:20.874Z,99.99
2018-06-17T02:14:21.413Z,99.99
2018-06-17T02:15:21.963Z,99.99
2018-06-17T02:16:22.507Z,99.99
2018-06-17T02:17:23.059Z,99.99
2018-06-17T02:18:23.604Z,99.99
2018-06-17T02:19:24.152Z,99.99
2018-06-17T02:20:24.703Z,99.99
2018-06-17T02:21:25.254Z,99.99
2018-06-17T02:22:25.802Z,99.99
2018-06-17T02:23:26.346Z,99.99
2018-06-17T02:24:26.895Z,99.99
2018-06-17T02:25:27.444Z,99.99
2018-06-17T02:26:27.992Z,99.99
2018-06-17T02:27:28.540Z,99.99
2018-06-17T02:28:29.088Z,99.99
2018-06-17T02:29:29.640Z,99.99
2018-06-17T02:30:30.189Z,99.99
2018-06-17T02:31:30.735Z,99.99
2018-06-17T02:32:31.280Z,99.99
2018-06-17T02:33:31.829Z,99.99
2018-06-17T02:34:32.377Z,99.99
2018-06-17T02:35:32.925Z,99.99
2018-06-17T02:36:33.472Z,99.99
2018-06-17T02:37:34.025Z,99.99
2018-06-17T02:38:34.575Z,99.99
2018-06-17T02:39:35.126Z,99.99
2018-06-17T02:40:35.669Z,99.99
2018-06-17T02:41:36.220Z,99.99
2018-06-17T02:42:36.769Z,99.99
2018-06-17T02:43:37.320Z,99.99
2018-06-17T02:44:37.868Z,99.99
2018-06-17T02:45:38.411Z,99.99
2018-06-17T02:46:38.956Z,99.99
2018-06-17T02:47:39.498Z,99.99
2018-06-17T02:48:40.050Z,99.99
2018-06-17T02:49:40.600Z,99.99
2018-06-17T02:50:41.153Z,99.99
2018-06-17T02:51:41.701Z,99.99
2018-06-17T02:52:42.251Z,99.99
2018-06-17T02:53:42.796Z,99.99
2018-06-17T02:54:43.343Z,99.99
2018-06-17T02:55:43.893Z,99.99
2018-06-17T02:56:44.442Z,99.99
2018-06-17T02:57:44.988Z,99.99
2018-06-17T02:58:45.532Z,99.99
2018-06-17T02:59:46.083Z,99.99
2018-06-17T03:00:46.640Z,99.99
2018-06-17T03:01:47.194Z,99.99
2018-06-17T03:02:47.744Z,99.99
2018-06-17T03:03:48.339Z,99.99
2018-06-17T03:04:48.840Z,99.99
2018-06-17T03:05:49.395Z,99.99
2018-06-17T03:06:49.960Z,99.99
2018-06-17T03:07:50.494Z,99.99
2018-06-17T03:08:51.045Z,99.99
2018-06-17T03:09:51.593Z,99.99
2018-06-17T03:10:52.146Z,99.99
2018-06-17T03:11:52.699Z,99.99
2018-06-17T03:12:53.252Z,99.99
2018-06-17T03:13:53.802Z,99.99
2018-06-17T03:14:54.399Z,99.99
2018-06-17T03:15:54.906Z,99.99
2018-06-17T03:16:55.457Z,99.99
2018-06-17T03:17:56.123Z,99.99
2018-06-17T03:18:56.682Z,99.99
2018-06-17T03:19:57.232Z,99.99
2018-06-17T03:20:57.785Z,99.99
2018-06-17T03:21:58.328Z,99.99
2018-06-17T03:22:58.881Z,99.99
2018-06-17T03:23:59.433Z,99.99
2018-06-17T03:24:59.984Z,99.99
2018-06-17T03:26:00.534Z,99.99
2018-06-17T03:27:01.082Z,99.99
2018-06-17T03:28:01.630Z,99.99
2018-06-17T03:29:02.177Z,99.99
2018-06-17T03:30:02.731Z,99.99
2018-06-17T03:31:03.275Z,99.99
2018-06-17T03:32:03.826Z,99.99
2018-06-17T03:33:04.378Z,99.99
2018-06-17T03:34:04.933Z,99.99
2018-06-17T03:35:05.488Z,99.99
2018-06-17T03:36:06.041Z,99.99
2018-06-17T03:37:06.598Z,99.99
2018-06-17T03:38:07.145Z,99.99
2018-06-17T03:39:07.697Z,99.99
2018-06-17T03:40:08.254Z,99.99
2018-06-17T03:41:08.808Z,99.99
2018-06-17T03:42:09.356Z,99.99
2018-06-17T03:43:09.910Z,99.99
2018-06-17T03:44:10.459Z,99.99
2018-06-17T03:45:11.013Z,99.99
2018-06-17T03:46:11.568Z,99.99
2018-06-17T03:47:12.116Z,99.99
2018-06-17T03:48:12.667Z,99.99
2018-06-17T03:49:13.220Z,99.99
2018-06-17T03:50:13.775Z,99.99
2018-06-17T03:51:14.333Z,99.99
2018-06-17T03:52:14.885Z,99.99
2018-06-17T03:53:15.432Z,99.99
2018-06-17T03:54:15.985Z,99.99
2018-06-17T03:55:16.536Z,99.99
2018-06-17T03:56:17.092Z,99.99
2018-06-17T03:57:17.640Z,99.99
2018-06-17T03:58:18.192Z,99.99
2018-06-17T03:59:18.742Z,99.99
2018-06-17T04:00:19.296Z,99.99
2018-06-17T04:01:19.852Z,99.99
2018-06-17T04:02:20.401Z,99.99
2018-06-17T04:03:20.956Z,99.99
2018-06-17T04:04:21.503Z,99.99
2018-06-17T04:05:22.056Z,99.99
2018-06-17T04:06:22.605Z,99.99
2018-06-17T04:07:23.163Z,99.99
2018-06-17T04:08:23.716Z,99.99
2018-06-17T04:09:24.275Z,99.33
2018-06-17T04:10:24.841Z,99.52
2018-06-17T04:11:25.382Z,99.81
2018-06-17T04:12:25.936Z,99.99
2018-06-17T04:13:26.492Z,99.99
2018-06-17T04:14:27.053Z,99.99
2018-06-17T04:15:27.609Z,99.99
2018-06-17T04:16:28.166Z,99.99
2018-06-17T04:17:28.719Z,99.99
2018-06-17T04:18:29.272Z,99.99
2018-06-17T04:19:29.820Z,99.81
2018-06-17T04:20:30.385Z,99.99
2018-06-17T04:21:30.924Z,99.91
2018-06-17T04:22:31.481Z,99.99
2018-06-17T04:23:32.035Z,99.99
2018-06-17T04:24:32.594Z,99.99
2018-06-17T04:25:33.150Z,99.99
2018-06-17T04:26:33.693Z,99.81
2018-06-17T04:27:34.253Z,99.99
2018-06-17T04:28:34.809Z,99.91
2018-06-17T04:29:35.361Z,99.99
2018-06-17T04:30:35.918Z,99.99
2018-06-17T04:31:36.475Z,99.48
2018-06-17T04:32:37.032Z,99.48
2018-06-17T04:33:37.582Z,99.99
2018-06-17T04:34:38.133Z,99.99
2018-06-17T04:35:38.691Z,99.63
2018-06-17T04:36:39.239Z,99.34
2018-06-17T04:37:39.795Z,98.96
2018-06-17T04:38:40.351Z,99.15
2018-06-17T04:39:40.908Z,97.33
2018-06-17T04:40:41.460Z,97.42
2018-06-17T04:41:42.011Z,97.52
2018-06-17T04:42:42.568Z,97.42
2018-06-17T04:43:43.120Z,97.23
2018-06-17T04:44:43.681Z,97.18
2018-06-17T04:45:44.237Z,96.80
2018-06-17T04:46:44.795Z,96.03
2018-06-17T04:47:45.350Z,95.07
2018-06-17T04:48:45.912Z,95.46
2018-06-17T04:49:46.466Z,96.37
2018-06-17T04:50:47.019Z,94.12
2018-06-17T04:51:47.578Z,94.21
2018-06-17T04:52:48.139Z,94.74
2018-06-17T04:53:48.698Z,94.54
2018-06-17T04:54:49.257Z,94.64
2018-06-17T04:55:49.812Z,93.49
2018-06-17T04:56:50.370Z,93.01
2018-06-17T04:57:50.924Z,93.78
2018-06-17T04:58:51.485Z,93.88
2018-06-17T04:59:52.076Z,93.30
2018-06-17T05:00:52.592Z,91.77
2018-06-17T05:01:53.143Z,91.48
2018-06-17T05:02:53.709Z,91.52
2018-06-17T05:03:54.260Z,90.81
2018-06-17T05:04:54.827Z,91.72
2018-06-17T05:05:55.383Z,92.77
2018-06-17T05:06:55.933Z,91.05
2018-06-17T05:07:56.486Z,90.08
2018-06-17T05:08:57.041Z,90.75
2018-06-17T05:09:57.597Z,90.08
2018-06-17T05:10:58.152Z,90.56
2018-06-17T05:11:58.714Z,89.26
2018-06-17T05:12:59.269Z,87.48
2018-06-17T05:13:59.824Z,86.65
2018-06-17T05:15:00.389Z,84.34
2018-06-17T05:16:00.948Z,83.77
2018-06-17T05:17:01.509Z,83.92
2018-06-17T05:18:02.077Z,84.78
2018-06-17T05:19:02.638Z,85.21
2018-06-17T05:20:03.202Z,84.63
2018-06-17T05:21:03.754Z,82.14
2018-06-17T05:22:04.324Z,82.61
2018-06-17T05:23:04.887Z,83.33
2018-06-17T05:24:05.443Z,81.50
2018-06-17T05:25:06.006Z,80.83
2018-06-17T05:26:06.569Z,80.92
2018-06-17T05:27:07.128Z,81.12
2018-06-17T05:28:07.692Z,81.02
2018-06-17T05:29:08.252Z,82.17
2018-06-17T05:30:08.814Z,81.84
2018-06-17T05:31:09.368Z,82.32
2018-06-17T05:32:09.929Z,82.86
2018-06-17T05:33:10.493Z,82.67
2018-06-17T05:34:11.050Z,82.48
2018-06-17T05:35:11.614Z,83.53
2018-06-17T05:36:12.174Z,83.59
2018-06-17T05:37:12.736Z,84.30
2018-06-17T05:38:13.296Z,83.49
2018-06-17T05:39:13.856Z,83.59
2018-06-17T05:40:14.415Z,85.22
2018-06-17T05:41:14.978Z,83.78
2018-06-17T05:42:15.539Z,84.26
2018-06-17T05:43:16.093Z,84.36
2018-06-17T05:44:16.655Z,84.17
2018-06-17T05:45:17.214Z,83.59
2018-06-17T05:46:17.775Z,83.20
2018-06-17T05:47:18.337Z,84.01
2018-06-17T05:48:18.901Z,82.67
2018-06-17T05:49:19.456Z,81.90
2018-06-17T05:50:20.013Z,81.84
2018-06-17T05:51:20.582Z,81.32
2018-06-17T05:52:21.144Z,81.42
2018-06-17T05:53:21.706Z,82.09
2018-06-17T05:54:22.266Z,81.32
2018-06-17T05:55:22.827Z,82.38
2018-06-17T05:56:23.394Z,83.40
2018-06-17T05:57:23.956Z,83.30
2018-06-17T05:58:24.519Z,83.83
2018-06-17T05:59:25.080Z,82.53
2018-06-17T06:00:25.638Z,82.63
2018-06-17T06:01:26.193Z,83.30
2018-06-17T06:02:26.756Z,83.11
2018-06-17T06:03:27.313Z,83.59
2018-06-17T06:04:27.873Z,83.30
2018-06-17T06:05:28.432Z,82.59
2018-06-17T06:06:28.993Z,83.54
2018-06-17T06:07:29.549Z,84.31
2018-06-17T06:08:30.115Z,84.12
2018-06-17T06:09:30.675Z,83.54
2018-06-17T06:10:31.235Z,83.16
2018-06-17T06:11:31.795Z,84.12
2018-06-17T06:12:32.358Z,83.64
2018-06-17T06:13:32.918Z,84.07
2018-06-17T06:14:33.473Z,83.69
2018-06-17T06:15:34.035Z,83.01
2018-06-17T06:16:34.591Z,82.82
2018-06-17T06:17:35.157Z,82.82
2018-06-17T06:18:35.712Z,82.34
2018-06-17T06:19:36.273Z,82.53
2018-06-17T06:20:36.833Z,82.96
2018-06-17T06:21:37.394Z,82.73
2018-06-17T06:22:37.960Z,82.67
2018-06-17T06:23:38.721Z,82.23
2018-06-17T06:24:39.323Z,80.79
2018-06-17T06:25:39.845Z,80.21
2018-06-17T06:26:40.407Z,80.21
2018-06-17T06:27:40.965Z,79.67
2018-06-17T06:28:41.530Z,79.77
2018-06-17T06:29:42.097Z,79.03
2018-06-17T06:30:42.655Z,78.56
2018-06-17T06:31:43.216Z,77.96
2018-06-17T06:32:43.784Z,77.86
2018-06-17T06:33:44.352Z,75.68
2018-06-17T06:34:44.916Z,74.27
2018-06-17T06:35:45.488Z,72.63
2018-06-17T06:36:46.052Z,72.00
2018-06-17T06:37:46.628Z,71.12
2018-06-17T06:38:47.182Z,70.42
2018-06-17T06:39:47.749Z,70.51
2018-06-17T06:40:48.319Z,70.64
2018-06-17T06:41:48.879Z,70.36
2018-06-17T06:42:49.450Z,70.61
2018-06-17T06:43:50.018Z,71.48
2018-06-17T06:44:50.585Z,70.80
2018-06-17T06:45:51.143Z,71.34
2018-06-17T06:46:51.711Z,71.98
2018-06-17T06:47:52.279Z,72.95
2018-06-17T06:48:52.846Z,73.14
2018-06-17T06:49:53.414Z,73.58
2018-06-17T06:50:54.000Z,74.36
2018-06-17T06:51:54.533Z,74.51
2018-06-17T06:52:55.097Z,75.19
2018-06-17T06:53:55.657Z,75.38
2018-06-17T06:54:56.222Z,76.06
2018-06-17T06:55:56.785Z,76.31
2018-06-17T06:56:57.342Z,76.50
2018-06-17T06:57:57.906Z,77.23
2018-06-17T06:58:58.470Z,77.13
2018-06-17T06:59:59.037Z,77.71
2018-06-17T07:00:59.598Z,77.17
2018-06-17T07:02:00.160Z,77.04
2018-06-17T07:03:00.721Z,78.00
2018-06-17T07:04:01.284Z,78.00
2018-06-17T07:05:01.850Z,77.61
2018-06-17T07:06:02.410Z,77.84
2018-06-17T07:07:02.968Z,77.23
2018-06-17T07:08:03.532Z,77.46
2018-06-17T07:09:04.094Z,76.63
2018-06-17T07:10:04.657Z,75.54
2018-06-17T07:11:05.220Z,75.92
2018-06-17T07:12:05.791Z,75.73
2018-06-17T07:13:06.350Z,75.82
2018-06-17T07:14:06.914Z,75.82
2018-06-17T07:15:07.480Z,75.48
2018-06-17T07:16:08.047Z,75.57
2018-06-17T07:17:08.610Z,75.38
2018-06-17T07:18:09.171Z,75.96
2018-06-17T07:19:09.735Z,76.44
2018-06-17T07:20:10.300Z,76.25
2018-06-17T07:21:10.852Z,76.09
2018-06-17T07:22:11.412Z,76.09
2018-06-17T07:23:11.971Z,75.96
2018-06-17T07:24:12.534Z,76.09
2018-06-17T07:25:13.089Z,75.61
2018-06-17T07:26:13.651Z,75.42
2018-06-17T07:27:14.216Z,76.09
2018-06-17T07:28:14.775Z,75.80
2018-06-17T07:29:15.335Z,74.90
2018-06-17T07:30:15.897Z,75.57
2018-06-17T07:31:16.458Z,75.67
2018-06-17T07:32:17.015Z,75.96
2018-06-17T07:33:17.581Z,75.48
2018-06-17T07:34:18.144Z,75.76
2018-06-17T07:35:18.705Z,76.63
2018-06-17T07:36:19.269Z,76.53
2018-06-17T07:37:19.842Z,78.08
2018-06-17T07:38:20.407Z,77.17
2018-06-17T07:39:20.967Z,77.08
2018-06-17T07:40:21.530Z,76.98
2018-06-17T07:41:22.092Z,77.36
2018-06-17T07:42:22.658Z,77.40
2018-06-17T07:43:23.217Z,76.44
2018-06-17T07:44:23.775Z,76.92
2018-06-17T07:45:24.347Z,76.82
2018-06-17T07:46:24.915Z,76.25
2018-06-17T07:47:25.469Z,76.50
2018-06-17T07:48:26.037Z,76.59
2018-06-17T07:49:26.657Z,76.78
2018-06-17T07:50:27.153Z,77.46
2018-06-17T07:51:27.715Z,77.46
2018-06-17T07:52:28.272Z,77.75
2018-06-17T07:53:28.844Z,77.17
2018-06-17T07:54:29.398Z,77.17
2018-06-17T07:55:29.952Z,76.69
2018-06-17T07:56:30.516Z,77.56
2018-06-17T07:57:31.073Z,76.59
2018-06-17T07:58:31.623Z,77.26
2018-06-17T07:59:32.186Z,77.17
2018-06-17T08:00:32.749Z,77.46
2018-06-17T08:01:33.314Z,76.98
2018-06-17T08:02:33.881Z,77.17
2018-06-17T08:03:34.437Z,77.36
2018-06-17T08:04:35.028Z,77.08
2018-06-17T08:05:35.557Z,77.11
2018-06-17T08:06:36.124Z,76.40
2018-06-17T08:07:36.696Z,76.50
2018-06-17T08:08:37.257Z,76.69
2018-06-17T08:09:37.822Z,76.31
2018-06-17T08:10:38.391Z,75.86
2018-06-17T08:11:38.955Z,75.86
2018-06-17T08:12:39.514Z,75.57
2018-06-17T08:13:40.078Z,75.23
2018-06-17T08:14:40.646Z,75.16
2018-06-17T08:15:41.218Z,74.10
2018-06-17T08:16:41.778Z,73.47
2018-06-17T08:17:42.377Z,72.95
2018-06-17T08:18:42.909Z,73.62
2018-06-17T08:19:43.474Z,73.66
2018-06-17T08:20:44.040Z,72.69
2018-06-17T08:21:44.603Z,72.89
2018-06-17T08:22:45.163Z,73.27
2018-06-17T08:23:45.722Z,73.31
2018-06-17T08:24:46.292Z,71.19
2018-06-17T08:25:46.855Z,71.28
2018-06-17T08:26:47.424Z,70.90
2018-06-17T08:27:47.989Z,71.28
2018-06-17T08:28:48.559Z,71.58
2018-06-17T08:29:49.121Z,71.51
2018-06-17T08:30:49.683Z,71.28
2018-06-17T08:31:50.249Z,71.28
2018-06-17T08:32:50.815Z,71.38
2018-06-17T08:33:51.382Z,71.34
2018-06-17T08:34:51.945Z,72.50
2018-06-17T08:35:52.513Z,73.33
2018-06-17T08:36:53.072Z,73.53
2018-06-17T08:37:53.639Z,73.33
2018-06-17T08:38:54.204Z,73.43
2018-06-17T08:39:54.767Z,73.08
2018-06-17T08:40:55.330Z,72.60
2018-06-17T08:41:55.894Z,72.69
2018-06-17T08:42:56.459Z,72.21
2018-06-17T08:43:57.024Z,72.21
2018-06-17T08:44:57.592Z,72.54
2018-06-17T08:45:58.166Z,71.86
2018-06-17T08:46:58.729Z,71.77
2018-06-17T08:47:59.294Z,71.44
2018-06-17T08:48:59.849Z,71.86
2018-06-17T08:50:00.412Z,71.09
2018-06-17T08:51:00.977Z,69.84
2018-06-17T08:52:01.540Z,69.74
2018-06-17T08:53:02.131Z,69.74
2018-06-17T08:54:02.675Z,69.00
2018-06-17T08:55:03.238Z,68.59
2018-06-17T08:56:03.806Z,69.35
2018-06-17T08:57:04.417Z,70.13
2018-06-17T08:58:04.959Z,70.32
2018-06-17T08:59:05.522Z,70.13
2018-06-17T09:00:06.098Z,69.35
2018-06-17T09:01:06.655Z,70.13
2018-06-17T09:02:07.219Z,70.70
2018-06-17T09:03:07.786Z,70.51
2018-06-17T09:04:08.346Z,70.22
2018-06-17T09:05:08.911Z,71.19
2018-06-17T09:06:09.480Z,71.06
2018-06-17T09:07:10.045Z,71.15
2018-06-17T09:08:10.608Z,71.38
2018-06-17T09:09:11.172Z,71.00
2018-06-17T09:10:11.731Z,70.22
2018-06-17T09:11:12.303Z,70.13
2018-06-17T09:12:12.860Z,70.13
2018-06-17T09:13:13.431Z,70.32
2018-06-17T09:14:13.996Z,69.29
2018-06-17T09:15:14.561Z,69.87
2018-06-17T09:16:15.127Z,68.75
2018-06-17T09:17:15.690Z,68.88
2018-06-17T09:18:16.254Z,68.01
2018-06-17T09:19:16.833Z,68.10
2018-06-17T09:20:17.394Z,68.10
2018-06-17T09:21:17.956Z,66.98
2018-06-17T09:22:18.520Z,66.82
2018-06-17T09:23:19.086Z,66.59
2018-06-17T09:24:19.653Z,66.69
2018-06-17T09:25:20.284Z,66.01
2018-06-17T09:26:20.786Z,66.66
2018-06-17T09:27:21.377Z,67.78
2018-06-17T09:28:21.915Z,68.01
2018-06-17T09:29:22.482Z,67.91
2018-06-17T09:30:23.054Z,67.82
2018-06-17T09:31:23.620Z,67.14
2018-06-17T09:32:24.186Z,67.91
2018-06-17T09:33:24.745Z,67.91
2018-06-17T09:34:25.315Z,67.91
2018-06-17T09:35:25.883Z,67.82
2018-06-17T09:36:26.451Z,67.97
2018-06-17T09:37:27.019Z,68.49
2018-06-17T09:38:27.584Z,68.36
2018-06-17T09:39:28.154Z,68.65
2018-06-17T09:40:28.718Z,69.42
2018-06-17T09:41:29.279Z,69.71
2018-06-17T09:42:29.847Z,69.32
2018-06-17T09:43:30.410Z,69.90
2018-06-17T09:44:30.975Z,69.42
2018-06-17T09:45:31.541Z,69.52
2018-06-17T09:46:32.109Z,69.32
2018-06-17T09:47:32.677Z,69.42
2018-06-17T09:48:33.243Z,68.98
2018-06-17T09:49:33.807Z,68.30
2018-06-17T09:50:34.372Z,68.30
2018-06-17T09:51:34.938Z,68.68
2018-06-17T09:52:35.507Z,68.20
2018-06-17T09:53:36.077Z,67.85
2018-06-17T09:54:36.645Z,67.94
2018-06-17T09:55:37.229Z,67.27
2018-06-17T09:56:37.795Z,66.30
2018-06-17T09:57:38.353Z,66.33
2018-06-17T09:58:38.921Z,65.47
2018-06-17T09:59:39.491Z,65.37
2018-06-17T10:00:40.061Z,65.27
2018-06-17T10:01:40.632Z,64.50
2018-06-17T10:02:41.198Z,64.50
2018-06-17T10:03:41.763Z,64.50
2018-06-17T10:04:42.327Z,64.59
2018-06-17T10:05:42.894Z,64.31
2018-06-17T10:06:43.463Z,64.59
2018-06-17T10:07:44.032Z,64.59
2018-06-17T10:08:44.605Z,64.50
2018-06-17T10:09:45.201Z,64.34
2018-06-17T10:10:45.748Z,64.04
2018-06-17T10:11:46.311Z,63.92
2018-06-17T10:12:46.883Z,64.18
2018-06-17T10:13:47.456Z,64.18
2018-06-17T10:14:48.022Z,64.43
2018-06-17T10:15:48.590Z,65.11
2018-06-17T10:16:49.157Z,65.53
2018-06-17T10:17:49.726Z,65.20
2018-06-17T10:18:50.290Z,64.79
2018-06-17T10:19:50.862Z,66.08
2018-06-17T10:20:51.434Z,65.88
2018-06-17T10:21:51.999Z,65.98
2018-06-17T10:22:52.580Z,65.88
2018-06-17T10:23:53.134Z,65.30
2018-06-17T10:24:53.700Z,65.30
2018-06-17T10:25:54.268Z,65.20
2018-06-17T10:26:54.834Z,64.92
2018-06-17T10:27:55.398Z,65.98
2018-06-17T10:28:55.978Z,65.50
2018-06-17T10:29:56.527Z,65.53
2018-06-17T10:30:57.093Z,65.24
2018-06-17T10:33:13.120Z,65.30
2018-06-17T10:34:13.685Z,66.20
2018-06-17T10:35:14.252Z,65.88
2018-06-17T10:36:14.819Z,65.30
2018-06-17T10:37:15.384Z,64.82
2018-06-17T10:38:15.947Z,65.11
2018-06-17T10:39:16.515Z,65.01
2018-06-17T10:40:17.084Z,64.92
2018-06-17T10:41:17.654Z,64.53
2018-06-17T10:42:18.213Z,64.47
2018-06-17T10:43:18.785Z,63.85
2018-06-17T10:44:19.375Z,63.27
2018-06-17T10:45:19.919Z,63.95
2018-06-17T10:46:20.485Z,62.88
2018-06-17T10:47:21.049Z,62.40
2018-06-17T10:48:21.612Z,62.69
2018-06-17T10:49:22.182Z,62.85
2018-06-17T10:50:22.767Z,61.98
2018-06-17T10:51:23.319Z,62.08
2018-06-17T10:52:23.881Z,62.37
2018-06-17T10:53:24.452Z,62.73
2018-06-17T10:54:25.021Z,63.02
2018-06-17T10:55:25.587Z,63.40
2018-06-17T10:56:26.152Z,63.40
2018-06-17T10:57:26.719Z,64.08
2018-06-17T10:58:27.287Z,63.98
2018-06-17T10:59:27.853Z,63.40
2018-06-17T11:00:28.420Z,63.85
2018-06-17T11:01:28.977Z,63.82
2018-06-17T11:02:29.541Z,63.85
2018-06-17T11:03:30.106Z,64.40
2018-06-17T11:04:30.673Z,65.37
2018-06-17T11:05:31.265Z,65.08
2018-06-17T11:06:31.815Z,65.27
2018-06-17T11:07:32.373Z,65.72
2018-06-17T11:08:32.934Z,66.17
2018-06-17T11:09:33.498Z,66.66
2018-06-17T11:10:34.058Z,66.94
2018-06-17T11:11:34.628Z,66.85
2018-06-17T11:12:35.187Z,66.52
2018-06-17T11:13:35.753Z,67.49
2018-06-17T11:14:36.316Z,67.40
2018-06-17T11:15:36.886Z,67.58
2018-06-17T11:16:37.444Z,68.45
2018-06-17T11:17:38.001Z,69.42
2018-06-17T11:18:38.563Z,68.61
2018-06-17T11:19:39.138Z,68.90
2018-06-17T11:20:39.694Z,69.67
2018-06-17T11:21:40.260Z,69.77
2018-06-17T11:22:40.823Z,69.93
2018-06-17T11:23:41.387Z,69.45
2018-06-17T11:24:41.952Z,70.31
2018-06-17T11:25:42.511Z,70.25
2018-06-17T11:26:43.075Z,70.21
2018-06-17T11:27:43.638Z,70.50
2018-06-17T11:28:44.201Z,70.21
2018-06-17T11:29:44.761Z,69.83
2018-06-17T11:30:45.318Z,70.31
2018-06-17T11:31:45.884Z,70.41
2018-06-17T11:32:46.444Z,69.09
2018-06-17T11:33:47.009Z,68.99
2018-06-17T11:34:47.576Z,68.52
2018-06-17T11:35:48.144Z,69.06
2018-06-17T11:36:48.709Z,69.48
2018-06-17T11:37:49.272Z,69.48
2018-06-17T11:38:49.860Z,68.90
2018-06-17T11:39:50.397Z,68.52
2018-06-17T11:40:50.953Z,67.84
2018-06-17T11:41:51.519Z,68.13
2018-06-17T11:42:52.084Z,67.26
2018-06-17T11:43:52.644Z,67.84
2018-06-17T11:44:53.204Z,67.84
2018-06-17T11:45:53.767Z,67.65
2018-06-17T11:46:54.337Z,67.65
2018-06-17T11:47:54.895Z,67.97
2018-06-17T11:48:55.455Z,67.10
2018-06-17T11:49:56.024Z,67.58
2018-06-17T11:50:56.638Z,66.82
2018-06-17T11:51:57.158Z,65.75
2018-06-17T11:52:57.722Z,66.39
2018-06-17T11:53:58.288Z,65.81
2018-06-17T11:54:58.852Z,65.81
2018-06-17T11:55:59.423Z,66.14
2018-06-17T11:56:59.986Z,66.33
2018-06-17T11:58:00.555Z,65.85
2018-06-17T11:59:01.127Z,66.11
2018-06-17T12:00:01.683Z,66.49
2018-06-17T12:01:02.248Z,66.49
2018-06-17T12:02:02.816Z,66.59
2018-06-17T12:03:03.377Z,66.59
2018-06-17T12:04:03.944Z,67.07
2018-06-17T12:05:04.509Z,67.26
2018-06-17T12:06:05.070Z,67.26
2018-06-17T12:07:05.640Z,66.62
2018-06-17T12:08:06.200Z,66.52
2018-06-17T12:09:06.760Z,65.81
2018-06-17T12:10:07.329Z,66.39
2018-06-17T12:11:07.891Z,66.49
2018-06-17T12:12:08.457Z,66.49
2018-06-17T12:13:09.017Z,66.59
2018-06-17T12:14:09.583Z,66.39
2018-06-17T12:15:10.146Z,66.49
2018-06-17T12:16:10.709Z,66.49
2018-06-17T12:17:11.270Z,66.39
2018-06-17T12:18:11.830Z,66.97
2018-06-17T12:19:12.394Z,67.55
2018-06-17T12:20:12.954Z,67.55
2018-06-17T12:21:13.518Z,67.26
2018-06-17T12:22:14.077Z,67.74
2018-06-17T12:23:14.642Z,67.46
2018-06-17T12:24:15.201Z,67.36
2018-06-17T12:25:15.763Z,67.46
2018-06-17T12:26:16.386Z,67.74
2018-06-17T12:27:16.911Z,68.29
2018-06-17T12:28:17.474Z,68.38
2018-06-17T12:29:18.038Z,68.10
2018-06-17T12:30:18.596Z,69.15
2018-06-17T12:31:19.157Z,68.19
2018-06-17T12:32:19.712Z,68.48
2018-06-17T12:33:20.276Z,68.19
2018-06-17T12:34:20.842Z,68.29
2018-06-17T12:35:21.421Z,67.71
2018-06-17T12:36:21.980Z,68.19
2018-06-17T12:37:22.544Z,68.42
2018-06-17T12:38:23.107Z,68.61
2018-06-17T12:39:23.669Z,68.61
2018-06-17T12:40:24.233Z,67.36
2018-06-17T12:41:24.796Z,66.52
2018-06-17T12:42:25.353Z,66.62
2018-06-17T12:43:25.918Z,66.24
2018-06-17T12:44:26.471Z,65.98
2018-06-17T12:45:27.040Z,65.91
2018-06-17T12:46:27.602Z,64.86
2018-06-17T12:47:28.171Z,64.95
2018-06-17T12:48:28.738Z,64.28
2018-06-17T12:49:29.305Z,63.50
2018-06-17T12:50:29.886Z,63.98
2018-06-17T12:51:30.432Z,63.98
2018-06-17T12:52:30.993Z,63.82
2018-06-17T12:53:31.560Z,63.89
2018-06-17T12:54:32.125Z,63.70
2018-06-17T12:55:32.689Z,65.05
2018-06-17T12:56:33.257Z,64.50
2018-06-17T12:57:33.821Z,63.60
2018-06-17T12:58:34.382Z,63.60
2018-06-17T12:59:34.955Z,63.60
2018-06-17T13:00:35.514Z,64.28